Terminal Aerodrome Forecast
Issued by NWS Greer, SC

Home | Current Version | Previous Version | Text Only | Print | Product List | Glossary On
Versions: 1 2 3 4 5 6 7 8 9 10 11 12 13 14 15
000
FTUS42 KGSP 241733
TAFAVL
TAF
KAVL 241733Z 2418/2518 33008KT P6SM SCT040 BKN250
     FM250000 35003KT P6SM BKN250
     FM250900 34003KT 3SM BR SCT003
     FM251300 35004KT P6SM FEW040 BKN250=

USA.gov is the U.S. government's official web portal to all federal, state and local government web resources and services.